Latest Weather Observations for Coober Pedy Airport

IDS60801

Issued at 11:02 pm CDT Wednesday 4 March 2015 (issued every 30 minutes, with the page automatically refreshed every 10 minutes)

About weather observations | Map of weather stations | Latest weather observations for SA | Other Formats
Station Details ID: 016090 Name: COOBER PEDY AIRPORT Lat: -29.03 Lon: 134.72 Height: 225.0 m
Data from the previous 72 hours. | See also: Recent months at Coober Pedy Airport
Date/Time
CDT
Temp
°C
App
Temp
°C
Dew
Point
Rel
Hum
%
Delta-T
°C
Wind Press
QNH
hPa
Press
MSL
hPa
Rain
since 9 am
mm
Dir
 
Spd
km/h
Gust
km/h
Spd
kts
Gust
kts
04/11:00pm 26.5 19.8 8.0 31 10.0 S 33 41 18 22 1019.2 1018.1 0.0
04/10:30pm 26.9 19.5 8.4 31 10.1 S 37 46 20 25 1019.0 1017.9 0.0
04/10:00pm 27.3 19.5 8.2 30 10.4 S 39 46 21 25 1018.7 1017.6 0.0
04/09:30pm 28.4 21.6 9.2 30 10.7 S 35 43 19 23 1018.5 1017.3 0.0
04/09:00pm 28.7 22.5 9.9 31 10.6 S 33 39 18 21 1018.1 1016.9 0.0
04/08:30pm 29.2 23.8 10.8 32 10.6 S 30 39 16 21 1017.5 1016.3 0.0
04/08:00pm 29.2 23.0 11.3 33 10.4 S 35 43 19 23 1016.9 1015.8 0.0
04/07:30pm 29.5 22.6 11.5 33 10.5 S 39 46 21 25 1016.4 1015.3 0.0
04/07:00pm 30.7 23.3 11.1 30 11.4 S 41 48 22 26 1016.0 1014.9 0.0
04/06:30pm 31.7 24.0 11.5 29 11.9 S 43 54 23 29 1015.8 1014.7 0.0
04/06:26pm 32.2 24.5 11.4 28 12.2 S 43 54 23 29 1015.7 1014.6 0.0
04/06:00pm 33.0 28.6 10.4 25 13.1 S 24 35 13 19 1015.7 1014.6 0.0
04/05:30pm 33.3 28.6 9.4 23 13.7 S 24 35 13 19 1015.5 1014.4 0.0
04/05:00pm 33.8 29.6 9.8 23 13.9 S 22 33 12 18 1015.5 1014.4 0.0
04/04:30pm 33.4 28.7 9.4 23 13.8 S 24 35 13 19 1015.4 1014.3 0.0
04/04:00pm 33.3 28.8 10.0 24 13.5 S 24 35 13 19 1015.7 1014.6 0.0
04/03:30pm 33.2 28.7 9.9 24 13.5 SSE 24 35 13 19 1016.1 1015.0 0.0
04/03:00pm 32.3 27.7 9.8 25 12.9 S 24 39 13 21 1016.2 1015.1 0.0
04/02:30pm 32.8 28.0 10.2 25 13.1 S 26 33 14 18 1016.5 1015.4 0.0
04/02:00pm 31.7 27.1 9.8 26 12.6 SSE 24 35 13 19 1016.6 1015.5 0.0
04/01:30pm 30.9 26.7 9.7 27 12.1 SE 22 33 12 18 1017.0 1015.9 0.0
04/01:00pm 29.8 25.1 9.3 28 11.6 SSE 24 37 13 20 1017.6 1016.4 0.0
04/12:30pm 30.2 25.1 10.7 30 11.2 SSE 28 37 15 20 1017.9 1016.7 0.0
04/12:00pm 28.2 22.9 9.9 32 10.3 SSE 28 39 15 21 1018.3 1017.1 0.0
04/11:30am 27.5 22.3 10.2 34 9.8 SSE 28 39 15 21 1018.5 1017.3 0.0
04/11:00am 26.5 21.3 10.2 36 9.2 SE 28 35 15 19 1018.3 1017.1 0.0
04/10:30am 25.7 20.4 9.9 37 8.8 SE 28 37 15 20 1018.4 1017.2 0.0
04/10:00am 25.5 19.9 10.1 38 8.6 SSE 30 35 16 19 1018.4 1017.2 0.0
04/09:30am 24.6 19.0 10.1 40 8.1 SSE 30 39 16 21 1018.3 1017.1 0.0
04/09:00am 23.4 18.3 10.5 44 7.2 S 28 33 15 18 1018.0 1016.8 0.0
04/08:30am 22.4 18.4 10.5 47 6.6 S 22 28 12 15 1017.6 1016.4 0.0
04/08:00am 21.5 17.5 10.3 49 6.2 S 22 28 12 15 1017.0 1015.9 0.0
04/07:30am 21.1 17.1 10.6 51 5.8 S 22 26 12 14 1016.6 1015.5 0.0
04/07:00am 21.2 17.4 11.0 52 5.7 S 22 28 12 15 1016.2 1015.1 0.0
04/06:30am 21.5 17.2 10.9 51 5.9 S 24 32 13 17 1015.8 1014.7 0.0
04/06:00am 21.7 17.1 11.1 51 5.9 S 26 32 14 17 1015.5 1014.4 0.0
04/05:30am 22.2 18.1 11.3 50 6.1 S 24 30 13 16 1015.5 1014.4 0.0
04/05:00am 22.7 17.8 11.4 49 6.4 S 28 35 15 19 1015.2 1014.1 0.0
04/04:30am 22.9 16.8 11.6 49 6.4 S 35 43 19 23 1015.0 1013.9 0.0
04/04:00am 23.3 17.5 11.4 47 6.7 S 33 39 18 21 1015.1 1014.0 0.0
04/03:30am 24.1 17.8 11.1 44 7.3 S 35 43 19 23 1015.0 1013.9 0.0
04/03:00am 24.7 18.8 10.6 41 7.9 S 32 37 17 20 1015.2 1014.1 0.0
04/02:30am 26.5 20.0 10.2 36 9.2 SSE 35 41 19 22 1015.4 1014.3 0.0
04/02:00am 27.2 21.4 10.8 36 9.4 SSE 32 41 17 22 1015.8 1014.7 0.0
04/01:30am 27.3 22.6 10.5 35 9.5 S 26 32 14 17 1015.8 1014.7 0.0
04/01:00am 28.5 23.7 8.7 29 11.0 SSE 24 30 13 16 1015.9 1014.8 0.0
04/12:30am 28.9 23.8 7.5 26 11.6 SSE 24 30 13 16 1015.9 1014.8 0.0
04/12:00am 29.5 24.2 6.8 24 12.3 SSE 24 30 13 16 1015.7 1014.6 0.0
 
Date/Time
CDT
Temp
°C
App
Temp
°C
Dew
Point
Rel
Hum
%
Delta-T
°C
Wind Press
QNH
hPa
Press
MSL
hPa
Rain
since 9 am
mm
Dir
 
Spd
km/h
Gust
km/h
Spd
kts
Gust
kts
03/11:30pm 29.9 24.5 6.5 23 12.6 SSE 24 30 13 16 1015.7 1014.6 0.0
03/11:00pm 30.4 24.4 7.0 23 12.7 SSE 28 33 15 18 1015.6 1014.5 0.0
03/10:30pm 31.0 24.8 6.1 21 13.4 SSE 28 33 15 18 1015.6 1014.5 0.0
03/10:00pm 31.6 25.4 4.4 18 14.3 SSE 26 32 14 17 1015.3 1014.2 0.0
03/09:30pm 31.9 25.4 4.6 18 14.4 SSE 28 33 15 18 1015.0 1013.9 0.0
03/09:00pm 32.2 25.6 4.1 17 14.7 SSE 28 35 15 19 1014.6 1013.4 0.0
03/08:30pm 33.1 27.4 3.0 15 15.6 SSE 22 32 12 17 1014.1 1012.9 0.0
03/08:00pm 33.8 27.7 2.6 14 16.1 SE 24 32 13 17 1013.7 1012.5 0.0
03/07:30pm 34.6 28.8 2.2 13 16.7 SE 22 33 12 18 1013.4 1012.2 0.0
03/07:00pm 35.0 29.4 1.4 12 17.1 SE 20 28 11 15 1013.2 1012.0 0.0
03/06:30pm 35.5 30.0 1.8 12 17.4 SE 20 30 11 16 1013.1 1011.9 0.0
03/06:00pm 35.6 30.1 1.8 12 17.4 SE 20 33 11 18 1013.0 1011.8 0.0
03/05:30pm 34.9 29.5 2.4 13 16.8 SE 20 32 11 17 1012.9 1011.7 0.0
03/05:00pm 35.5 30.2 2.9 13 17.1 SE 20 35 11 19 1012.8 1011.6 0.0
03/04:30pm 35.5 30.2 2.9 13 17.1 SE 20 33 11 18 1013.0 1011.8 0.0
03/04:00pm 35.3 29.2 2.7 13 17.0 SSE 24 33 13 18 1013.1 1011.9 0.0
03/03:30pm 34.4 29.1 2.0 13 16.6 ESE 19 28 10 15 1013.4 1012.2 0.0
03/03:00pm 34.7 29.3 2.3 13 16.7 SE 20 32 11 17 1013.8 1012.6 0.0
03/02:30pm 33.6 28.2 2.4 14 16.0 ESE 20 30 11 16 1014.0 1012.8 0.0
03/02:00pm 32.9 27.2 2.9 15 15.5 ESE 22 35 12 19 1014.3 1013.1 0.0
03/01:30pm 32.2 26.9 3.2 16 15.0 SE 20 32 11 17 1014.5 1013.3 0.0
03/01:00pm 32.6 27.2 4.4 17 14.9 SE 22 32 12 17 1014.9 1013.8 0.0
03/12:30pm 31.6 24.7 4.4 18 14.3 SSE 30 37 16 20 1015.1 1014.0 0.0
03/12:00pm 30.3 24.1 4.1 19 13.6 SE 26 35 14 19 1015.5 1014.4 0.0
03/11:30am 29.6 23.3 5.6 22 12.7 SE 28 35 15 19 1015.6 1014.5 0.0
03/11:00am 28.3 21.8 6.4 25 11.7 SSE 30 39 16 21 1015.7 1014.6 0.0
03/10:30am 27.2 20.1 6.6 27 10.9 SSE 33 39 18 21 1015.4 1014.3 0.0
03/10:00am 26.0 19.2 7.1 30 10.1 SSE 32 39 17 21 1015.4 1014.3 0.0
03/09:30am 25.3 18.4 7.4 32 9.5 SSE 33 41 18 22 1015.1 1014.0 0.0
03/09:00am 24.2 17.1 8.2 36 8.6 SSE 35 43 19 23 1014.7 1013.6 0.0
03/08:30am 23.3 16.8 8.2 38 8.1 S 32 39 17 21 1014.8 1013.7 0.0
03/08:00am 22.8 17.1 8.5 40 7.7 SSE 28 37 15 20 1014.3 1013.1 0.0
03/07:30am 22.6 17.0 8.7 41 7.5 SSE 28 35 15 19 1013.9 1012.7 0.0
03/07:00am 22.6 17.4 7.2 37 8.1 S 24 33 13 18 1013.6 1012.4 0.0
03/06:30am 22.9 17.0 5.8 33 8.7 SSE 26 33 14 18 1013.1 1011.9 0.0
03/06:00am 23.1 17.1 5.1 31 9.1 SSE 26 32 14 17 1013.3 1012.1 0.0
03/05:30am 23.4 17.0 5.3 31 9.2 SSE 28 32 15 17 1012.9 1011.7 0.0
03/05:00am 23.7 17.8 5.6 31 9.3 SSE 26 32 14 17 1012.4 1011.3 0.0
03/04:30am 24.0 18.1 5.8 31 9.4 SSE 26 33 14 18 1012.0 1010.9 0.0
03/04:00am 24.3 19.0 6.6 32 9.2 SE 24 32 13 17 1011.8 1010.7 0.0
03/03:30am 24.4 19.4 6.6 32 9.3 SE 22 30 12 16 1012.0 1010.9 0.0
03/03:00am 24.8 19.7 6.1 30 9.7 SE 22 30 12 16 1012.0 1010.9 0.0
03/02:30am 25.2 19.4 6.4 30 9.8 SE 26 32 14 17 1012.1 1011.0 0.0
03/02:00am 25.6 19.9 6.7 30 10.0 SSE 26 33 14 18 1012.2 1011.1 0.0
03/01:30am 26.2 19.8 6.8 29 10.3 SE 30 37 16 20 1011.9 1010.8 0.0
03/01:00am 26.7 19.9 6.7 28 10.6 SE 32 37 17 20 1012.1 1011.0 0.0
03/12:30am 27.2 19.1 7.1 28 10.8 SSE 39 46 21 25 1012.1 1011.0 0.0
03/12:00am 28.7 21.0 5.5 23 12.2 SSE 35 48 19 26 1012.2 1011.1 0.0
 
Date/Time
CDT
Temp
°C
App
Temp
°C
Dew
Point
Rel
Hum
%
Delta-T
°C
Wind Press
QNH
hPa
Press
MSL
hPa
Rain
since 9 am
mm
Dir
 
Spd
km/h
Gust
km/h
Spd
kts
Gust
kts
02/11:55pm 29.3 22.4 4.7 21 12.8 SSE 30 48 16 26 1012.1 1011.0 0.0
02/11:30pm 31.0 25.5 3.9 18 14.1 SE 22 26 12 14 1011.9 1010.8 0.0
02/11:00pm 31.3 26.2 4.2 18 14.2 SE 20 26 11 14 1011.8 1010.7 0.0
02/10:30pm 32.0 27.0 4.7 18 14.4 SSE 20 32 11 17 1011.5 1010.4 0.0
02/10:00pm 32.4 27.5 5.0 18 14.6 SSE 20 24 11 13 1011.4 1010.3 0.0
02/09:30pm 32.7 28.3 4.5 17 14.9 SSE 17 20 9 11 1010.9 1009.8 0.0
02/09:00pm 33.6 29.5 4.3 16 15.6 SE 15 19 8 10 1010.4 1009.2 0.0
02/08:30pm 34.3 29.8 4.0 15 16.1 ESE 17 19 9 10 1009.7 1008.5 0.0
02/08:00pm 35.1 30.5 3.6 14 16.7 SE 17 20 9 11 1009.3 1008.1 0.0
02/07:30pm 35.7 32.3 4.1 14 16.9 SE 11 17 6 9 1009.1 1007.9 0.0
02/07:00pm 35.8 33.4 4.2 14 16.9 SE 6 13 3 7 1009.0 1007.8 0.0
02/06:30pm 36.3 33.8 4.6 14 17.2 SW 7 11 4 6 1008.9 1007.7 0.0
02/06:00pm 36.3 32.8 3.5 13 17.5 E 11 17 6 9 1008.8 1007.6 0.0
02/05:30pm 36.0 33.0 4.3 14 17.1 SSW 9 13 5 7 1008.8 1007.6 0.0
02/05:00pm 35.9 32.2 4.2 14 17.0 SE 13 22 7 12 1009.0 1007.8 0.0
02/04:30pm 36.1 32.2 3.3 13 17.4 S 13 24 7 13 1009.1 1007.9 0.0
02/04:00pm 35.8 32.4 4.2 14 16.9 SSW 11 19 6 10 1009.3 1008.1 0.0
02/03:30pm 35.1 31.6 3.6 14 16.7 SSE 11 22 6 12 1009.5 1008.3 0.0
02/03:00pm 35.0 31.9 3.5 14 16.6 E 9 19 5 10 1009.9 1008.7 0.0
02/02:30pm 34.5 30.9 3.1 14 16.4 ENE 11 26 6 14 1010.2 1009.0 0.0
02/02:00pm 33.8 31.1 3.6 15 15.8 NNE 7 17 4 9 1010.7 1009.5 0.0
02/01:30pm 32.9 28.9 2.9 15 15.5 ENE 13 22 7 12 1011.2 1010.1 0.0
02/01:00pm 32.1 27.8 3.1 16 14.9 NE 15 24 8 13 1011.7 1010.6 0.0
02/12:30pm 31.7 27.3 2.8 16 14.8 NE 15 22 8 12 1012.1 1011.0 0.0
02/12:00pm 30.7 25.2 2.0 16 14.4 ENE 20 30 11 16 1012.1 1011.0 0.0
02/11:30am 29.9 23.3 2.2 17 13.9 ENE 26 32 14 17 1012.2 1011.1 0.0
02/11:00am 28.9 21.1 1.4 17 13.5 ENE 32 37 17 20 1012.2 1011.1 0.0
02/10:30am 26.9 20.2 3.4 22 11.8 E 28 35 15 19 1012.5 1011.4 0.0
02/10:00am 25.1 19.0 4.8 27 10.3 E 26 32 14 17 1012.6 1011.5 0.0
02/09:30am 24.0 18.0 5.4 30 9.5 E 26 33 14 18 1012.6 1011.5 0.0
02/09:00am 22.8 16.6 6.1 34 8.6 E 28 35 15 19 1012.0 1010.9 0.0
02/08:30am 21.6 16.2 6.3 37 7.8 ESE 24 28 13 15 1012.2 1011.1 0.0
02/08:00am 20.2 15.7 6.2 40 7.1 ESE 19 22 10 12 1012.3 1011.2 0.0
02/07:30am 19.3 15.0 5.4 40 6.9 ESE 17 20 9 11 1012.0 1010.9 0.0
02/07:00am 19.4 15.1 5.1 39 7.0 ESE 17 20 9 11 1011.9 1010.8 0.0
02/06:30am 19.8 15.1 5.1 38 7.3 ESE 19 22 10 12 1011.5 1010.4 0.0
02/06:00am 19.9 15.1 4.8 37 7.4 ESE 19 22 10 12 1011.5 1010.4 0.0
02/05:30am 19.9 15.1 4.4 36 7.6 ESE 19 22 10 12 1011.5 1010.4 0.0
02/05:00am 20.5 15.4 4.1 34 8.0 SE 20 24 11 13 1011.6 1010.5 0.0
02/04:30am 20.6 15.5 3.3 32 8.3 SE 19 24 10 13 1011.8 1010.7 0.0
02/04:00am 20.8 15.5 2.1 29 8.8 SE 19 22 10 12 1011.9 1010.8 0.0
02/03:30am 21.0 15.6 1.3 27 9.1 SSE 19 22 10 12 1011.9 1010.8 0.0
02/03:00am 21.0 16.0 1.3 27 9.1 SE 17 19 9 10 1012.1 1011.0 0.0
02/02:30am 21.3 16.7 1.6 27 9.2 SE 15 17 8 9 1012.4 1011.3 0.0
02/02:00am 21.6 17.0 1.3 26 9.4 SSE 15 17 8 9 1012.5 1011.4 0.0
02/01:30am 22.1 17.5 1.7 26 9.6 SE 15 17 8 9 1012.8 1011.6 0.0
02/01:00am 22.2 17.7 2.3 27 9.5 SE 15 17 8 9 1012.6 1011.5 0.0
02/12:30am 23.0 18.5 1.9 25 10.0 SSE 15 17 8 9 1012.6 1011.5 0.0
02/12:00am 23.5 19.0 2.4 25 10.2 SSE 15 17 8 9 1012.8 1011.6 0.0
 
Date/Time
CDT
Temp
°C
App
Temp
°C
Dew
Point
Rel
Hum
%
Delta-T
°C
Wind Press
QNH
hPa
Press
MSL
hPa
Rain
since 9 am
mm
Dir
 
Spd
km/h
Gust
km/h
Spd
kts
Gust
kts
01/11:30pm 24.3 19.9 2.5 24 10.6 SSE 15 19 8 10 1013.0 1011.8 0.0

Other Formats:

Comma delimited format used in spreadsheet applications
http://www.bom.gov.au/fwo/IDS60801/IDS60801.95458.axf

JavaScript Object Notation format (JSON) in row-major order
http://www.bom.gov.au/fwo/IDS60801/IDS60801.95458.json